createdAt,value
2022-12-15T00:04:09.048Z,58.47
2022-12-15T00:09:38.770Z,94.85
2022-12-15T00:15:08.483Z,77.45
2022-12-15T00:17:53.512Z,71.18
2022-12-15T00:20:38.494Z,69.55
2022-12-15T00:26:08.080Z,73.40
2022-12-15T00:28:53.030Z,79.18
2022-12-15T00:34:23.391Z,61.92
2022-12-15T00:37:08.280Z,67.35
2022-12-15T00:39:34.824Z,68.22
2022-12-15T00:42:01.132Z,70.20
2022-12-15T00:44:27.511Z,71.07
2022-12-15T00:46:56.869Z,66.15
2022-12-15T00:49:42.730Z,70.80
2022-12-15T00:52:28.111Z,66.60
2022-12-15T00:55:12.948Z,63.05
2022-12-15T00:57:57.855Z,65.57
2022-12-15T01:00:43.185Z,64.82
2022-12-15T01:03:36.975Z,64.97
2022-12-15T01:06:26.229Z,54.30
2022-12-15T01:09:11.153Z,57.67
2022-12-15T01:11:56.053Z,64.20
2022-12-15T01:17:25.697Z,51.85
2022-12-15T01:20:10.670Z,60.42
2022-12-15T01:25:03.974Z,51.03
2022-12-15T01:27:30.340Z,58.13
2022-12-15T01:29:56.633Z,57.03
2022-12-15T01:32:22.965Z,54.08
2022-12-15T01:34:49.498Z,56.08
2022-12-15T01:37:15.898Z,58.85
2022-12-15T01:40:00.786Z,54.40
2022-12-15T01:42:27.294Z,58.63
2022-12-15T01:44:53.929Z,49.03
2022-12-15T01:47:25.071Z,52.53
2022-12-15T01:49:51.803Z,57.20
2022-12-15T01:52:18.303Z,55.85
2022-12-15T01:54:53.951Z,58.83
2022-12-15T01:57:24.877Z,56.47
2022-12-15T01:59:57.817Z,54.72
2022-12-15T02:02:26.251Z,48.38
2022-12-15T02:04:53.900Z,55.47
2022-12-15T02:07:20.267Z,56.35
2022-12-15T02:09:48.092Z,53.90
2022-12-15T02:12:26.649Z,50.80
2022-12-15T02:14:52.955Z,61.05
2022-12-15T02:17:28.142Z,60.20
2022-12-15T02:20:13.270Z,53.10
2022-12-15T02:25:05.838Z,50.00
2022-12-15T02:27:44.245Z,48.40
2022-12-15T02:30:13.988Z,46.97
2022-12-15T02:33:03.059Z,46.60
2022-12-15T02:35:53.686Z,48.92
2022-12-15T02:38:33.893Z,46.25
2022-12-15T02:41:01.266Z,46.28
2022-12-15T02:43:29.297Z,55.60
2022-12-15T02:46:04.639Z,45.70
2022-12-15T02:48:37.968Z,49.13
2022-12-15T02:51:12.221Z,48.35
2022-12-15T02:53:59.277Z,48.53
2022-12-15T02:56:29.556Z,41.92
2022-12-15T02:58:56.194Z,45.58
2022-12-15T03:01:37.385Z,49.70
2022-12-15T03:04:05.804Z,45.83
2022-12-15T03:06:32.151Z,45.65
2022-12-15T03:08:58.556Z,47.28
2022-12-15T03:11:24.992Z,42.78
2022-12-15T03:13:52.193Z,48.30
2022-12-15T03:16:18.575Z,51.88
2022-12-15T03:18:45.105Z,45.15
2022-12-15T03:21:11.417Z,45.40
2022-12-15T03:23:38.544Z,46.00
2022-12-15T03:26:05.168Z,46.92
2022-12-15T03:28:31.499Z,45.28
2022-12-15T03:30:57.849Z,40.00
2022-12-15T03:33:24.172Z,45.97
2022-12-15T03:35:53.319Z,39.42
2022-12-15T03:38:19.702Z,39.83
2022-12-15T03:40:46.041Z,44.58
2022-12-15T03:43:12.417Z,44.83
2022-12-15T03:45:38.836Z,44.45
2022-12-15T03:48:05.285Z,50.63
2022-12-15T03:50:31.801Z,40.58
2022-12-15T03:52:59.364Z,41.38
2022-12-15T03:55:26.087Z,42.05
2022-12-15T03:57:52.764Z,45.50
2022-12-15T04:00:20.199Z,45.15
2022-12-15T04:02:47.267Z,41.50
2022-12-15T04:05:23.077Z,41.22
2022-12-15T04:07:49.408Z,41.30
2022-12-15T04:10:15.944Z,35.78
2022-12-15T04:12:42.273Z,37.55
2022-12-15T04:15:09.837Z,32.97
2022-12-15T04:17:36.167Z,37.08
2022-12-15T04:20:09.600Z,35.47
2022-12-15T04:22:39.965Z,36.83
2022-12-15T04:25:25.946Z,33.15
2022-12-15T04:28:10.859Z,31.05
2022-12-15T04:30:56.829Z,38.30
2022-12-15T04:33:42.140Z,38.15
2022-12-15T04:36:28.624Z,30.00
2022-12-15T04:39:15.604Z,35.28
2022-12-15T04:42:00.477Z,36.83
2022-12-15T04:44:45.335Z,34.13
2022-12-15T04:47:34.965Z,34.88
2022-12-15T04:50:20.022Z,36.38
2022-12-15T04:53:05.054Z,31.38
2022-12-15T04:55:53.317Z,38.15
2022-12-15T04:58:38.698Z,34.10
2022-12-15T05:01:23.647Z,36.25
2022-12-15T05:04:09.005Z,33.92
2022-12-15T05:09:40.072Z,31.48
2022-12-15T05:12:25.034Z,30.13
2022-12-15T05:15:09.796Z,28.25
2022-12-15T05:17:54.841Z,27.83
2022-12-15T05:20:39.739Z,32.00
2022-12-15T05:23:24.723Z,31.35
2022-12-15T05:26:09.555Z,31.85
2022-12-15T05:28:54.248Z,27.00
2022-12-15T05:31:39.241Z,30.55
2022-12-15T05:34:07.110Z,31.25
2022-12-15T05:36:33.443Z,32.75
2022-12-15T05:38:59.815Z,28.98
2022-12-15T05:41:26.237Z,27.42
2022-12-15T05:43:52.567Z,32.97
2022-12-15T05:46:19.790Z,33.72
2022-12-15T05:48:46.359Z,27.15
2022-12-15T05:51:13.200Z,34.15
2022-12-15T05:53:40.241Z,30.90
2022-12-15T05:56:07.992Z,33.97
2022-12-15T05:58:35.778Z,32.00
2022-12-15T06:01:07.712Z,31.70
2022-12-15T06:03:34.831Z,28.05
2022-12-15T06:06:01.474Z,25.65
2022-12-15T06:08:31.687Z,29.73
2022-12-15T06:10:58.165Z,33.58
2022-12-15T06:13:25.173Z,34.25
2022-12-15T06:15:57.400Z,37.35
2022-12-15T06:18:24.425Z,37.63
2022-12-15T06:20:56.672Z,34.28
2022-12-15T06:23:23.060Z,28.30
2022-12-15T06:25:49.429Z,33.33
2022-12-15T06:28:16.822Z,28.80
2022-12-15T06:30:43.239Z,37.40
2022-12-15T06:33:09.790Z,29.77
2022-12-15T06:35:37.950Z,31.38
2022-12-15T06:38:04.294Z,28.73
2022-12-15T06:40:36.268Z,32.00
2022-12-15T06:43:06.263Z,24.48
2022-12-15T06:45:32.604Z,28.95
2022-12-15T06:48:01.520Z,36.47
2022-12-15T06:50:28.264Z,30.92
2022-12-15T06:52:54.609Z,34.25
2022-12-15T06:55:20.926Z,34.15
2022-12-15T06:57:47.780Z,34.55
2022-12-15T07:00:15.406Z,30.40
2022-12-15T07:02:42.650Z,28.92
2022-12-15T07:05:09.433Z,32.15
2022-12-15T07:07:35.764Z,33.63
2022-12-15T07:10:02.175Z,34.80
2022-12-15T07:12:28.527Z,30.63
2022-12-15T07:14:54.836Z,26.08
2022-12-15T07:17:21.173Z,38.95
2022-12-15T07:19:47.537Z,46.67
2022-12-15T07:22:15.044Z,40.80
2022-12-15T07:24:41.326Z,35.70
2022-12-15T07:27:07.647Z,34.47
2022-12-15T07:29:34.029Z,34.30
2022-12-15T07:32:01.140Z,30.25
2022-12-15T07:34:27.556Z,37.50
2022-12-15T07:36:53.868Z,58.50
2022-12-15T07:39:20.176Z,42.00
2022-12-15T07:41:46.950Z,42.95
2022-12-15T07:44:14.720Z,38.28
2022-12-15T07:46:41.132Z,29.38
2022-12-15T07:49:07.542Z,31.55
2022-12-15T07:51:33.885Z,32.30
2022-12-15T07:54:00.242Z,33.97
2022-12-15T07:56:26.578Z,36.80
2022-12-15T07:58:53.066Z,40.05
2022-12-15T08:01:19.581Z,42.47
2022-12-15T08:03:48.237Z,46.45
2022-12-15T08:06:15.246Z,46.70
2022-12-15T08:08:43.259Z,54.60
2022-12-15T08:11:10.474Z,57.97
2022-12-15T08:14:02.077Z,48.45
2022-12-15T08:16:24.167Z,44.00
2022-12-15T08:18:50.622Z,52.65
2022-12-15T08:21:17.036Z,47.80
2022-12-15T08:23:43.389Z,55.20
2022-12-15T08:26:11.368Z,45.97
2022-12-15T08:28:38.821Z,46.83
2022-12-15T08:31:25.530Z,42.47
2022-12-15T08:33:51.999Z,46.08
2022-12-15T08:36:18.857Z,53.72
2022-12-15T08:38:45.647Z,49.50
2022-12-15T08:41:13.254Z,55.45
2022-12-15T08:43:45.853Z,43.60
2022-12-15T08:46:15.053Z,47.88
2022-12-15T08:48:41.470Z,40.75
2022-12-15T08:51:08.171Z,39.85
2022-12-15T08:53:34.565Z,40.40
2022-12-15T08:56:08.242Z,63.08
2022-12-15T08:58:34.810Z,57.30
2022-12-15T09:01:05.575Z,54.50
2022-12-15T09:03:33.255Z,54.55
2022-12-15T09:06:07.317Z,52.40
2022-12-15T09:08:34.122Z,55.92
2022-12-15T09:11:01.009Z,51.58
2022-12-15T09:13:27.572Z,67.07
2022-12-15T09:16:09.276Z,46.85
2022-12-15T09:18:36.544Z,45.65
2022-12-15T09:21:03.965Z,42.17
2022-12-15T09:23:30.985Z,39.08
2022-12-15T09:26:01.091Z,48.95
2022-12-15T09:28:28.492Z,65.68
2022-12-15T09:30:54.898Z,67.18
2022-12-15T09:33:21.339Z,105.07
2022-12-15T09:35:51.114Z,106.63
2022-12-15T09:38:17.544Z,188.90
2022-12-15T09:40:43.958Z,252.95
2022-12-15T09:43:34.490Z,81.72
2022-12-15T09:46:06.568Z,36.53
2022-12-15T09:48:41.556Z,36.83
2022-12-15T09:51:12.936Z,38.92
2022-12-15T09:53:56.133Z,37.05
2022-12-15T09:56:36.581Z,38.13
2022-12-15T09:59:14.374Z,36.72
2022-12-15T10:01:44.054Z,102.35
2022-12-15T10:04:14.277Z,173.80
2022-12-15T10:06:43.718Z,247.40
2022-12-15T10:09:27.776Z,240.90
2022-12-15T10:12:09.537Z,173.65
2022-12-15T10:14:44.153Z,109.40
2022-12-15T10:17:19.446Z,72.05
2022-12-15T10:22:14.204Z,19.77
2022-12-15T10:27:44.344Z,22.58
2022-12-15T10:30:12.081Z,17.35
2022-12-15T10:32:54.091Z,15.90
2022-12-15T10:35:29.438Z,20.27
2022-12-15T10:40:41.428Z,14.50
2022-12-15T10:43:13.420Z,17.08
2022-12-15T10:45:39.878Z,19.10
2022-12-15T10:48:07.026Z,16.42
2022-12-15T10:50:34.179Z,17.75
2022-12-15T10:53:06.514Z,15.05
2022-12-15T10:55:35.969Z,16.23
2022-12-15T10:58:03.235Z,14.93
2022-12-15T11:00:30.888Z,15.10
2022-12-15T11:02:58.006Z,17.48
2022-12-15T11:05:24.967Z,15.25
2022-12-15T11:07:55.508Z,16.13
2022-12-15T11:10:21.881Z,17.60
2022-12-15T11:12:58.980Z,19.48
2022-12-15T11:15:31.148Z,18.38
2022-12-15T11:18:04.010Z,21.35
2022-12-15T11:20:33.572Z,22.42
2022-12-15T11:23:07.193Z,23.83
2022-12-15T11:25:36.670Z,19.05
2022-12-15T11:28:06.826Z,18.73
2022-12-15T11:30:35.640Z,16.52
2022-12-15T11:33:03.013Z,15.07
2022-12-15T11:35:38.545Z,14.52
2022-12-15T11:38:16.585Z,15.25
2022-12-15T11:40:43.263Z,11.73
2022-12-15T11:43:42.122Z,13.07
2022-12-15T11:46:27.113Z,14.73
2022-12-15T11:48:56.525Z,13.07
2022-12-15T11:51:41.846Z,14.10
2022-12-15T11:54:08.226Z,11.82
2022-12-15T11:56:37.287Z,11.45
2022-12-15T11:59:21.865Z,12.20
2022-12-15T12:02:02.975Z,11.45
2022-12-15T12:04:35.650Z,12.05
2022-12-15T12:07:20.585Z,12.38
2022-12-15T12:10:16.149Z,12.55
2022-12-15T12:12:50.469Z,14.80
2022-12-15T12:15:26.088Z,13.70
2022-12-15T12:17:53.648Z,14.40
2022-12-15T12:20:21.910Z,14.73
2022-12-15T12:23:04.906Z,16.52
2022-12-15T12:25:33.897Z,13.25
2022-12-15T12:28:02.056Z,13.93
2022-12-15T12:30:43.417Z,16.92
2022-12-15T12:33:14.171Z,12.55
2022-12-15T12:35:49.586Z,14.27
2022-12-15T12:40:50.779Z,15.57
2022-12-15T12:43:30.764Z,15.85
2022-12-15T12:45:59.436Z,17.35
2022-12-15T12:48:25.754Z,19.77
2022-12-15T12:50:53.475Z,18.52
2022-12-15T12:53:33.351Z,16.90
2022-12-15T12:55:59.896Z,17.58
2022-12-15T12:58:31.407Z,21.67
2022-12-15T13:01:17.848Z,22.45
2022-12-15T13:03:44.844Z,17.75
2022-12-15T13:06:29.946Z,15.85
2022-12-15T13:08:56.503Z,19.55
2022-12-15T13:11:41.526Z,17.30
2022-12-15T13:14:18.416Z,12.93
2022-12-15T13:17:16.843Z,19.27
2022-12-15T13:19:54.531Z,15.93
2022-12-15T13:22:32.466Z,17.25
2022-12-15T13:24:58.969Z,23.23
2022-12-15T13:27:34.503Z,20.85
2022-12-15T13:30:07.164Z,19.73
2022-12-15T13:32:39.792Z,18.45
2022-12-15T13:35:12.414Z,18.17
2022-12-15T13:37:58.739Z,21.33
2022-12-15T13:40:26.470Z,23.33
2022-12-15T13:43:04.995Z,20.10
2022-12-15T13:45:36.330Z,22.88
2022-12-15T13:48:12.292Z,24.50
2022-12-15T13:50:44.078Z,22.40
2022-12-15T13:53:20.419Z,23.85
2022-12-15T13:55:59.028Z,22.40
2022-12-15T13:58:26.002Z,26.95
2022-12-15T14:00:56.288Z,24.15
2022-12-15T14:03:22.917Z,23.92
2022-12-15T14:05:51.291Z,19.95
2022-12-15T14:08:18.274Z,22.98
2022-12-15T14:10:52.264Z,21.75
2022-12-15T14:13:24.406Z,23.52
2022-12-15T14:15:52.972Z,19.63
2022-12-15T14:18:27.010Z,20.13
2022-12-15T14:20:53.573Z,19.05
2022-12-15T14:23:24.374Z,22.42
2022-12-15T14:26:01.817Z,24.98
2022-12-15T14:28:30.281Z,20.95
2022-12-15T14:30:57.661Z,20.60
2022-12-15T14:33:28.257Z,22.98
2022-12-15T14:35:57.046Z,21.10
2022-12-15T14:38:30.018Z,21.17
2022-12-15T14:40:57.163Z,20.70
2022-12-15T14:43:33.031Z,22.73
2022-12-15T14:46:08.251Z,20.33
2022-12-15T14:48:41.364Z,22.50
2022-12-15T14:51:10.148Z,22.92
2022-12-15T14:53:38.507Z,23.13
2022-12-15T14:56:25.750Z,18.13
2022-12-15T14:58:55.960Z,25.25
2022-12-15T15:01:25.702Z,22.60
2022-12-15T15:03:58.976Z,23.52
2022-12-15T15:06:52.321Z,24.35
2022-12-15T15:09:23.280Z,31.55
2022-12-15T15:11:50.968Z,23.67
2022-12-15T15:14:20.584Z,20.60
2022-12-15T15:16:57.908Z,20.55
2022-12-15T15:19:24.337Z,25.27
2022-12-15T15:21:50.717Z,20.00
2022-12-15T15:24:17.166Z,22.48
2022-12-15T15:26:43.674Z,26.77
2022-12-15T15:29:28.765Z,25.05
2022-12-15T15:32:04.696Z,22.08
2022-12-15T15:34:31.072Z,22.35
2022-12-15T15:36:57.512Z,21.70
2022-12-15T15:39:23.825Z,21.85
2022-12-15T15:41:50.158Z,21.52
2022-12-15T15:44:16.704Z,30.95
2022-12-15T15:46:47.398Z,32.25
2022-12-15T15:49:16.340Z,29.38
2022-12-15T15:51:42.978Z,38.25
2022-12-15T15:54:17.327Z,31.42
2022-12-15T15:56:43.951Z,33.40
2022-12-15T15:59:14.603Z,23.83
2022-12-15T16:01:41.179Z,33.53
2022-12-15T16:04:07.854Z,33.25
2022-12-15T16:06:34.271Z,27.20
2022-12-15T16:09:00.837Z,30.63
2022-12-15T16:11:28.974Z,32.55
2022-12-15T16:13:56.665Z,64.80
2022-12-15T16:16:24.395Z,71.72
2022-12-15T16:18:50.762Z,44.80
2022-12-15T16:21:17.864Z,42.83
2022-12-15T16:23:45.643Z,35.88
2022-12-15T16:26:15.108Z,34.70
2022-12-15T16:28:41.509Z,34.13
2022-12-15T16:31:15.277Z,52.30
2022-12-15T16:33:42.222Z,46.77
2022-12-15T16:36:17.466Z,38.20
2022-12-15T16:38:43.909Z,37.15
2022-12-15T16:41:12.901Z,44.35
2022-12-15T16:43:44.472Z,30.63
2022-12-15T16:46:17.462Z,33.10
2022-12-15T16:48:43.991Z,36.00
2022-12-15T16:51:18.257Z,36.88
2022-12-15T16:53:45.129Z,25.02
2022-12-15T16:56:13.844Z,32.67
2022-12-15T16:58:40.259Z,34.67
2022-12-15T17:01:06.675Z,35.97
2022-12-15T17:03:33.109Z,33.78
2022-12-15T17:06:01.729Z,34.53
2022-12-15T17:08:40.013Z,32.67
2022-12-15T17:11:07.219Z,28.35
2022-12-15T17:13:45.428Z,33.28
2022-12-15T17:16:14.385Z,34.08
2022-12-15T17:18:42.707Z,32.63
2022-12-15T17:21:13.311Z,34.20
2022-12-15T17:23:40.214Z,31.20
2022-12-15T17:26:25.634Z,38.45
2022-12-15T17:28:53.938Z,36.42
2022-12-15T17:31:21.360Z,32.53
2022-12-15T17:33:48.119Z,48.28
2022-12-15T17:36:25.099Z,36.58
2022-12-15T17:38:55.544Z,40.83
2022-12-15T17:41:50.317Z,38.25
2022-12-15T17:44:37.303Z,33.50
2022-12-15T17:49:35.515Z,36.20
2022-12-15T17:52:04.527Z,33.63
2022-12-15T17:54:30.995Z,37.97
2022-12-15T17:56:57.328Z,50.33
2022-12-15T17:59:23.625Z,45.65
2022-12-15T18:01:50.218Z,45.75
2022-12-15T18:04:16.683Z,50.97
2022-12-15T18:06:44.303Z,57.70
2022-12-15T18:09:17.595Z,56.80
2022-12-15T18:11:46.666Z,79.85
2022-12-15T18:14:14.705Z,88.22
2022-12-15T18:16:41.431Z,64.65
2022-12-15T18:19:08.320Z,58.80
2022-12-15T18:21:34.723Z,63.70
2022-12-15T18:24:01.465Z,56.83
2022-12-15T18:26:28.055Z,68.50
2022-12-15T18:28:54.423Z,53.80
2022-12-15T18:31:20.872Z,66.90
2022-12-15T18:33:47.319Z,74.47
2022-12-15T18:36:13.978Z,89.18
2022-12-15T18:38:40.276Z,69.32
2022-12-15T18:41:09.819Z,60.85
2022-12-15T18:43:39.111Z,55.03
2022-12-15T18:46:05.549Z,50.70
2022-12-15T18:48:36.062Z,62.58
2022-12-15T18:51:11.264Z,56.03
2022-12-15T18:53:37.673Z,50.42
2022-12-15T18:56:05.723Z,58.25
2022-12-15T18:58:33.884Z,49.20
2022-12-15T19:01:01.440Z,48.22
2022-12-15T19:03:28.415Z,60.92
2022-12-15T19:06:25.516Z,62.35
2022-12-15T19:08:58.271Z,59.03
2022-12-15T19:11:31.064Z,68.35
2022-12-15T19:13:58.245Z,65.75
2022-12-15T19:16:25.868Z,63.05
2022-12-15T19:19:16.938Z,54.60
2022-12-15T19:22:02.532Z,64.20
2022-12-15T19:27:15.970Z,58.47
2022-12-15T19:29:42.601Z,58.10
2022-12-15T19:32:08.961Z,59.13
2022-12-15T19:34:35.643Z,62.45
2022-12-15T19:37:02.764Z,65.00
2022-12-15T19:39:30.090Z,60.47
2022-12-15T19:41:56.461Z,53.05
2022-12-15T19:44:22.956Z,55.55
2022-12-15T19:46:49.383Z,55.42
2022-12-15T19:49:15.796Z,59.47
2022-12-15T19:51:43.438Z,65.20
2022-12-15T19:54:15.684Z,63.47
2022-12-15T19:56:42.062Z,70.65
2022-12-15T19:59:18.776Z,71.40
2022-12-15T20:01:46.079Z,67.22
2022-12-15T20:04:12.494Z,68.95
2022-12-15T20:06:39.055Z,59.55
2022-12-15T20:09:07.105Z,82.15
2022-12-15T20:11:33.438Z,63.58
2022-12-15T20:14:01.623Z,72.38
2022-12-15T20:16:28.087Z,69.10
2022-12-15T20:18:56.089Z,86.32
2022-12-15T20:21:31.422Z,86.70
2022-12-15T20:24:02.100Z,103.20
2022-12-15T20:26:29.310Z,90.20
2022-12-15T20:28:56.271Z,82.97
2022-12-15T20:31:23.559Z,85.28
2022-12-15T20:33:50.745Z,72.43
2022-12-15T20:36:24.273Z,61.35
2022-12-15T20:38:50.979Z,64.03
2022-12-15T20:41:18.527Z,70.10
2022-12-15T20:43:45.220Z,67.97
2022-12-15T20:46:32.178Z,58.25
2022-12-15T20:48:58.785Z,81.07
2022-12-15T20:51:26.931Z,79.22
2022-12-15T20:53:55.606Z,69.60
2022-12-15T20:56:23.152Z,67.70
2022-12-15T20:58:50.059Z,67.90
2022-12-15T21:01:18.341Z,83.28
2022-12-15T21:03:45.835Z,84.78
2022-12-15T21:06:18.771Z,72.15
2022-12-15T21:08:45.337Z,67.85
2022-12-15T21:11:14.743Z,69.88
2022-12-15T21:13:41.253Z,68.35
2022-12-15T21:16:13.321Z,58.10
2022-12-15T21:19:18.234Z,66.22
2022-12-15T21:21:27.709Z,47.33
2022-12-15T21:23:54.724Z,53.10
2022-12-15T21:26:22.008Z,45.08
2022-12-15T21:28:49.222Z,46.45
2022-12-15T21:31:17.267Z,50.25
2022-12-15T21:33:43.614Z,54.33
2022-12-15T21:36:14.116Z,45.38
2022-12-15T21:38:41.406Z,52.70
2022-12-15T21:41:11.768Z,61.63
2022-12-15T21:43:38.589Z,62.38
2022-12-15T21:46:12.154Z,60.42
2022-12-15T21:48:57.281Z,51.10
2022-12-15T21:51:23.882Z,55.85
2022-12-15T21:53:50.827Z,54.30
2022-12-15T21:56:18.238Z,52.78
2022-12-15T21:58:45.937Z,46.63
2022-12-15T22:01:14.411Z,53.38
2022-12-15T22:03:42.909Z,49.25
2022-12-15T22:06:16.233Z,52.60
2022-12-15T22:08:42.635Z,44.70
2022-12-15T22:11:20.031Z,54.72
2022-12-15T22:13:46.629Z,49.53
2022-12-15T22:16:13.113Z,47.53
2022-12-15T22:18:39.565Z,53.60
2022-12-15T22:21:07.731Z,53.75
2022-12-15T22:23:34.397Z,42.35
2022-12-15T22:26:00.960Z,45.13
2022-12-15T22:28:30.825Z,46.53
2022-12-15T22:30:57.703Z,41.88
2022-12-15T22:33:25.244Z,51.63
2022-12-15T22:35:52.380Z,44.90
2022-12-15T22:38:21.980Z,48.90
2022-12-15T22:40:49.347Z,41.90
2022-12-15T22:43:22.289Z,44.90
2022-12-15T22:45:49.684Z,36.15
2022-12-15T22:48:18.649Z,45.30
2022-12-15T22:50:45.111Z,47.05
2022-12-15T22:53:15.806Z,42.80
2022-12-15T22:55:43.643Z,39.60
2022-12-15T22:58:11.089Z,39.65
2022-12-15T23:00:37.853Z,42.20
2022-12-15T23:03:05.723Z,40.40
2022-12-15T23:05:32.100Z,39.75
2022-12-15T23:07:58.890Z,41.15
2022-12-15T23:10:44.016Z,42.30
2022-12-15T23:13:10.564Z,40.10
2022-12-15T23:15:55.470Z,38.55
2022-12-15T23:18:21.865Z,42.85
2022-12-15T23:20:48.203Z,42.85
2022-12-15T23:23:15.360Z,41.15
2022-12-15T23:25:41.676Z,45.30
2022-12-15T23:28:08.113Z,45.25
2022-12-15T23:30:34.852Z,41.92
2022-12-15T23:33:01.195Z,46.40
2022-12-15T23:35:27.746Z,41.03
2022-12-15T23:37:54.173Z,39.42
2022-12-15T23:40:22.354Z,37.70
2022-12-15T23:42:52.341Z,36.83
2022-12-15T23:45:18.876Z,44.63
2022-12-15T23:47:45.347Z,39.17
2022-12-15T23:50:11.839Z,39.60
2022-12-15T23:52:38.237Z,43.83
2022-12-15T23:55:04.871Z,40.70
2022-12-15T23:57:31.475Z,42.15
2022-12-15T23:59:57.846Z,41.67
